createdAt,value
2022-08-30T00:00:07.216Z,70.89
2022-08-30T00:02:35.510Z,70.75
2022-08-30T00:05:04.060Z,70.98
2022-08-30T00:07:31.638Z,71.05
2022-08-30T00:10:01.803Z,71.04
2022-08-30T00:12:31.871Z,71.08
2022-08-30T00:14:59.783Z,71.04
2022-08-30T00:17:27.300Z,70.92
2022-08-30T00:19:56.111Z,71.08
2022-08-30T00:22:26.403Z,71.52
2022-08-30T00:24:55.161Z,71.23
2022-08-30T00:27:22.790Z,71.10
2022-08-30T00:29:53.727Z,71.27
2022-08-30T00:32:21.939Z,70.97
2022-08-30T00:34:51.658Z,71.26
2022-08-30T00:37:20.171Z,71.18
2022-08-30T00:39:48.439Z,71.23
2022-08-30T00:42:17.598Z,71.08
2022-08-30T00:44:45.853Z,71.63
2022-08-30T00:47:17.494Z,71.48
2022-08-30T00:49:49.721Z,71.41
2022-08-30T00:52:20.945Z,71.38
2022-08-30T00:54:51.110Z,71.52
2022-08-30T00:57:19.464Z,71.47
2022-08-30T00:59:49.769Z,71.32
2022-08-30T01:02:22.822Z,71.54
2022-08-30T01:04:54.332Z,71.05
2022-08-30T01:07:22.106Z,71.04
2022-08-30T01:09:49.759Z,71.05
2022-08-30T01:12:17.755Z,71.06
2022-08-30T01:14:50.554Z,71.10
2022-08-30T01:17:21.285Z,70.94
2022-08-30T01:20:08.923Z,71.62
2022-08-30T01:22:51.379Z,71.57
2022-08-30T01:25:28.812Z,71.55
2022-08-30T01:28:04.503Z,71.38
2022-08-30T01:30:33.715Z,70.91
2022-08-30T01:33:04.715Z,71.46
2022-08-30T01:35:46.215Z,71.53
2022-08-30T01:38:15.960Z,71.07
2022-08-30T01:40:43.959Z,71.17
2022-08-30T01:43:14.048Z,71.18
2022-08-30T01:45:42.068Z,71.21
2022-08-30T01:48:12.992Z,71.25
2022-08-30T01:50:41.770Z,71.39
2022-08-30T01:53:13.155Z,71.22
2022-08-30T01:55:42.419Z,71.44
2022-08-30T01:58:10.176Z,71.14
2022-08-30T02:00:38.825Z,71.40
2022-08-30T02:03:07.036Z,71.53
2022-08-30T02:05:34.845Z,71.58
2022-08-30T02:08:03.655Z,71.66
2022-08-30T02:10:31.409Z,71.50
2022-08-30T02:13:03.180Z,72.05
2022-08-30T02:15:30.839Z,71.74
2022-08-30T02:18:01.771Z,72.17
2022-08-30T02:20:29.332Z,72.13
2022-08-30T02:23:00.853Z,72.46
2022-08-30T02:25:28.957Z,72.66
2022-08-30T02:27:56.591Z,72.74
2022-08-30T02:30:24.249Z,72.90
2022-08-30T02:32:52.476Z,73.11
2022-08-30T02:35:19.969Z,73.15
2022-08-30T02:37:47.510Z,73.23
2022-08-30T02:40:15.129Z,73.27
2022-08-30T02:42:42.737Z,73.32
2022-08-30T02:45:10.882Z,73.41
2022-08-30T02:47:38.412Z,73.23
2022-08-30T02:50:07.810Z,73.34
2022-08-30T02:52:35.299Z,73.38
2022-08-30T02:55:04.365Z,73.39
2022-08-30T02:57:31.956Z,73.41
2022-08-30T02:59:59.744Z,73.43
2022-08-30T03:02:30.429Z,73.31
2022-08-30T03:04:57.988Z,73.41
2022-08-30T03:07:25.494Z,73.49
2022-08-30T03:09:53.030Z,73.46
2022-08-30T03:12:20.752Z,73.30
2022-08-30T03:14:48.605Z,73.19
2022-08-30T03:17:18.427Z,73.21
2022-08-30T03:19:46.726Z,73.02
2022-08-30T03:22:14.266Z,72.81
2022-08-30T03:24:41.763Z,72.69
2022-08-30T03:27:09.767Z,72.85
2022-08-30T03:29:37.504Z,72.75
2022-08-30T03:32:12.331Z,72.44
2022-08-30T03:34:40.261Z,72.45
2022-08-30T03:37:08.351Z,72.09
2022-08-30T03:39:41.694Z,71.85
2022-08-30T03:42:12.048Z,71.67
2022-08-30T03:44:39.990Z,71.44
2022-08-30T03:47:08.580Z,71.08
2022-08-30T03:49:36.295Z,70.95
2022-08-30T03:52:06.926Z,70.82
2022-08-30T03:54:34.495Z,70.22
2022-08-30T03:57:04.079Z,70.10
2022-08-30T03:59:31.679Z,69.85
2022-08-30T04:01:59.490Z,69.67
2022-08-30T04:04:27.228Z,69.41
2022-08-30T04:06:55.535Z,69.10
2022-08-30T04:09:23.591Z,69.17
2022-08-30T04:11:51.359Z,68.76
2022-08-30T04:14:19.090Z,68.55
2022-08-30T04:16:46.721Z,68.20
2022-08-30T04:19:14.353Z,68.14
2022-08-30T04:21:42.746Z,67.86
2022-08-30T04:24:13.992Z,67.97
2022-08-30T04:26:41.817Z,67.47
2022-08-30T04:29:12.430Z,67.02
2022-08-30T04:31:40.087Z,66.64
2022-08-30T04:34:10.709Z,66.02
2022-08-30T04:36:38.747Z,65.56
2022-08-30T04:39:13.528Z,64.91
2022-08-30T04:41:43.528Z,64.43
2022-08-30T04:44:19.192Z,63.88
2022-08-30T04:46:48.087Z,63.62
2022-08-30T04:49:15.694Z,63.16
2022-08-30T04:51:43.305Z,62.66
2022-08-30T04:54:10.988Z,62.36
2022-08-30T04:56:39.175Z,61.92
2022-08-30T04:59:06.837Z,61.30
2022-08-30T05:01:44.545Z,61.15
2022-08-30T05:04:15.095Z,60.65
2022-08-30T05:06:43.474Z,60.02
2022-08-30T05:09:11.449Z,60.09
2022-08-30T05:11:39.014Z,59.59
2022-08-30T05:14:06.691Z,59.48
2022-08-30T05:16:34.477Z,59.29
2022-08-30T05:19:02.093Z,58.89
2022-08-30T05:21:29.726Z,58.76
2022-08-30T05:23:59.975Z,58.14
2022-08-30T05:26:30.263Z,57.68
2022-08-30T05:28:58.505Z,57.45
2022-08-30T05:31:33.182Z,57.02
2022-08-30T05:34:05.363Z,56.73
2022-08-30T05:36:36.249Z,56.20
2022-08-30T05:39:06.003Z,56.08
2022-08-30T05:41:34.126Z,55.50
2022-08-30T05:44:03.161Z,54.97
2022-08-30T05:49:07.827Z,54.11
2022-08-30T05:51:42.857Z,53.73
2022-08-30T05:54:13.269Z,53.12
2022-08-30T05:56:42.413Z,53.00
2022-08-30T05:59:10.209Z,52.53
2022-08-30T06:01:47.734Z,51.24
2022-08-30T06:04:15.716Z,51.00
2022-08-30T06:06:44.593Z,50.47
2022-08-30T06:09:13.735Z,49.95
2022-08-30T06:11:41.875Z,49.33
2022-08-30T06:14:09.608Z,48.73
2022-08-30T06:16:39.422Z,48.55
2022-08-30T06:19:08.915Z,47.50
2022-08-30T06:21:37.695Z,46.80
2022-08-30T06:24:07.307Z,46.26
2022-08-30T06:26:45.554Z,45.29
2022-08-30T06:29:16.772Z,44.55
2022-08-30T06:31:44.822Z,44.02
2022-08-30T06:34:12.408Z,43.81
2022-08-30T06:36:40.866Z,42.88
2022-08-30T06:39:09.002Z,42.30
2022-08-30T06:41:38.939Z,41.46
2022-08-30T06:44:15.440Z,40.98
2022-08-30T06:46:43.074Z,40.44
2022-08-30T06:49:10.628Z,39.56
2022-08-30T06:51:39.963Z,38.86
2022-08-30T06:54:10.862Z,37.93
2022-08-30T06:56:55.221Z,37.55
2022-08-30T06:59:26.936Z,37.39
2022-08-30T07:01:55.851Z,36.65
2022-08-30T07:04:24.197Z,35.81
2022-08-30T07:06:51.742Z,35.24
2022-08-30T07:09:19.786Z,34.81
2022-08-30T07:11:51.786Z,34.11
2022-08-30T07:14:20.724Z,34.67
2022-08-30T07:16:51.282Z,35.81
2022-08-30T07:19:21.348Z,36.69
2022-08-30T07:21:49.933Z,37.24
2022-08-30T07:24:18.714Z,37.91
2022-08-30T07:26:50.008Z,38.69
2022-08-30T07:29:18.646Z,39.08
2022-08-30T07:31:46.513Z,38.75
2022-08-30T07:34:13.969Z,38.32
2022-08-30T07:36:41.447Z,37.83
2022-08-30T07:39:09.959Z,36.81
2022-08-30T07:41:41.124Z,36.09
2022-08-30T07:44:09.162Z,35.22
2022-08-30T07:46:39.926Z,34.81
2022-08-30T07:49:11.317Z,34.58
2022-08-30T07:51:40.269Z,33.98
2022-08-30T07:54:09.243Z,33.57
2022-08-30T07:56:45.538Z,34.09
2022-08-30T07:59:13.021Z,33.93
2022-08-30T08:01:42.852Z,33.13
2022-08-30T08:04:13.256Z,32.55
2022-08-30T08:06:41.355Z,32.42
2022-08-30T08:09:09.501Z,31.84
2022-08-30T08:11:37.150Z,31.10
2022-08-30T08:14:04.758Z,30.12
2022-08-30T08:16:37.168Z,28.66
2022-08-30T08:19:09.118Z,27.75
2022-08-30T08:21:39.987Z,26.93
2022-08-30T08:24:08.087Z,26.87
2022-08-30T08:26:40.981Z,26.87
2022-08-30T08:29:13.208Z,27.16
2022-08-30T08:31:41.843Z,26.85
2022-08-30T08:34:11.723Z,26.59
2022-08-30T08:36:40.481Z,26.11
2022-08-30T08:39:09.665Z,25.20
2022-08-30T08:41:49.271Z,24.67
2022-08-30T08:44:22.906Z,23.75
2022-08-30T08:46:59.109Z,23.09
2022-08-30T08:49:26.954Z,22.22
2022-08-30T08:52:14.079Z,21.38
2022-08-30T08:54:56.388Z,22.16
2022-08-30T08:57:33.587Z,21.80
2022-08-30T09:00:03.331Z,22.21
2022-08-30T09:03:04.437Z,21.24
2022-08-30T09:05:38.562Z,20.32
2022-08-30T09:08:11.709Z,19.97
2022-08-30T09:10:50.317Z,20.08
2022-08-30T09:13:22.743Z,19.65
2022-08-30T09:15:56.610Z,19.76
2022-08-30T09:18:52.580Z,18.68
2022-08-30T09:21:26.768Z,18.59
2022-08-30T09:24:04.708Z,18.75
2022-08-30T09:26:36.267Z,18.30
2022-08-30T09:29:06.139Z,17.92
2022-08-30T09:32:10.142Z,17.76
2022-08-30T09:34:43.766Z,17.35
2022-08-30T09:37:29.842Z,17.13
2022-08-30T09:39:58.276Z,17.51
2022-08-30T09:42:29.798Z,17.86
2022-08-30T09:45:10.579Z,18.68
2022-08-30T09:47:43.223Z,19.84
2022-08-30T09:50:14.785Z,20.83
2022-08-30T09:53:12.299Z,20.97
2022-08-30T09:56:27.198Z,21.97
2022-08-30T09:59:11.182Z,22.64
2022-08-30T10:02:14.143Z,22.51
2022-08-30T10:05:00.338Z,22.42
2022-08-30T10:08:06.306Z,22.98
2022-08-30T10:10:45.231Z,22.71
2022-08-30T10:13:33.779Z,22.53
2022-08-30T10:16:25.796Z,21.78
2022-08-30T10:19:04.158Z,20.15
2022-08-30T10:22:10.845Z,18.98
2022-08-30T10:24:43.967Z,17.12
2022-08-30T10:27:18.441Z,16.47
2022-08-30T10:29:59.740Z,16.79
2022-08-30T10:32:39.720Z,17.42
2022-08-30T10:35:19.613Z,18.28
2022-08-30T10:37:56.131Z,19.67
2022-08-30T10:40:42.284Z,20.49
2022-08-30T10:43:26.256Z,21.28
2022-08-30T10:45:57.225Z,22.07
2022-08-30T10:48:33.805Z,23.33
2022-08-30T10:51:11.598Z,23.54
2022-08-30T10:53:51.160Z,23.46
2022-08-30T10:56:24.540Z,23.58
2022-08-30T10:58:59.232Z,23.15
2022-08-30T11:01:36.319Z,21.04
2022-08-30T11:04:32.061Z,18.50
2022-08-30T11:07:26.877Z,17.00
2022-08-30T11:10:20.300Z,16.84
2022-08-30T11:12:58.584Z,17.60
2022-08-30T11:15:34.618Z,16.96
2022-08-30T11:18:10.793Z,15.41
2022-08-30T11:20:50.927Z,16.50
2022-08-30T11:23:36.483Z,16.98
2022-08-30T11:26:08.732Z,16.49
2022-08-30T11:28:46.356Z,15.36
2022-08-30T11:31:23.572Z,14.90
2022-08-30T11:34:00.946Z,14.05
2022-08-30T11:36:28.730Z,13.39
2022-08-30T11:39:41.847Z,12.89
2022-08-30T11:42:29.403Z,13.80
2022-08-30T11:45:25.507Z,16.00
2022-08-30T11:48:00.054Z,17.45
2022-08-30T11:51:14.177Z,19.30
2022-08-30T11:53:55.686Z,20.64
2022-08-30T11:56:37.850Z,21.35
2022-08-30T11:59:26.110Z,21.24
2022-08-30T12:01:57.261Z,18.74
2022-08-30T12:04:56.337Z,16.28
2022-08-30T12:07:57.507Z,15.14
2022-08-30T12:10:41.790Z,14.88
2022-08-30T12:13:35.024Z,14.16
2022-08-30T12:16:12.247Z,13.59
2022-08-30T12:19:06.689Z,12.94
2022-08-30T12:21:45.111Z,12.66
2022-08-30T12:24:26.371Z,12.60
2022-08-30T12:26:54.773Z,12.09
2022-08-30T12:29:31.069Z,12.28
2022-08-30T12:32:05.394Z,11.97
2022-08-30T12:34:50.940Z,11.98
2022-08-30T12:37:33.763Z,12.24
2022-08-30T12:40:06.676Z,11.90
2022-08-30T12:42:37.836Z,11.58
2022-08-30T12:45:13.090Z,11.76
2022-08-30T12:47:49.456Z,12.07
2022-08-30T12:50:22.306Z,13.65
2022-08-30T12:53:21.989Z,15.26
2022-08-30T12:56:49.950Z,14.43
2022-08-30T13:00:05.787Z,14.47
2022-08-30T13:02:52.236Z,14.42
2022-08-30T13:05:44.347Z,14.39
2022-08-30T13:08:18.830Z,14.75
2022-08-30T13:11:07.328Z,15.29
2022-08-30T13:13:45.805Z,15.61
2022-08-30T13:16:23.002Z,17.51
2022-08-30T13:18:53.527Z,19.17
2022-08-30T13:21:47.256Z,20.35
2022-08-30T13:24:17.119Z,21.44
2022-08-30T13:26:45.394Z,22.35
2022-08-30T13:29:26.116Z,23.96
2022-08-30T13:31:57.102Z,24.43
2022-08-30T13:34:27.956Z,25.30
2022-08-30T13:36:58.017Z,25.96
2022-08-30T13:39:26.369Z,26.64
2022-08-30T13:42:31.342Z,26.80
2022-08-30T13:44:47.923Z,28.01
2022-08-30T13:47:33.259Z,27.59
2022-08-30T13:50:04.229Z,27.57
2022-08-30T13:52:31.771Z,27.38
2022-08-30T13:54:59.399Z,27.01
2022-08-30T14:00:21.778Z,27.37
2022-08-30T14:02:54.467Z,28.00
2022-08-30T14:06:15.562Z,28.46
2022-08-30T14:08:46.426Z,28.72
2022-08-30T14:11:20.956Z,29.23
2022-08-30T14:16:43.250Z,29.84
2022-08-30T14:19:12.933Z,29.96
2022-08-30T14:21:40.962Z,30.37
2022-08-30T14:24:09.378Z,30.49
2022-08-30T14:26:39.783Z,31.02
2022-08-30T14:29:10.205Z,30.87
2022-08-30T14:31:40.015Z,31.30
2022-08-30T14:34:09.333Z,31.63
2022-08-30T14:36:42.088Z,31.94
2022-08-30T14:39:14.628Z,31.65
2022-08-30T14:41:46.286Z,32.00
2022-08-30T14:44:15.141Z,32.17
2022-08-30T14:46:44.356Z,32.31
2022-08-30T14:49:13.409Z,32.74
2022-08-30T14:51:42.122Z,33.07
2022-08-30T14:54:10.153Z,33.53
2022-08-30T14:56:54.722Z,33.71
2022-08-30T14:59:25.522Z,34.26
2022-08-30T15:01:53.222Z,34.60
2022-08-30T15:04:21.643Z,35.72
2022-08-30T15:06:50.425Z,36.02
2022-08-30T15:09:26.061Z,36.68
2022-08-30T15:11:58.715Z,37.40
2022-08-30T15:14:28.097Z,37.21
2022-08-30T15:16:58.360Z,37.40
2022-08-30T15:19:26.829Z,38.23
2022-08-30T15:21:54.686Z,38.52
2022-08-30T15:24:29.495Z,38.78
2022-08-30T15:27:01.030Z,40.13
2022-08-30T15:29:30.673Z,39.60
2022-08-30T15:32:01.188Z,39.92
2022-08-30T15:34:29.375Z,40.45
2022-08-30T15:36:57.871Z,40.90
2022-08-30T15:39:25.545Z,41.44
2022-08-30T15:41:55.930Z,41.34
2022-08-30T15:44:27.353Z,41.51
2022-08-30T15:46:54.960Z,41.13
2022-08-30T15:49:24.483Z,41.39
2022-08-30T15:51:54.082Z,41.15
2022-08-30T15:54:23.873Z,41.36
2022-08-30T15:56:59.242Z,41.17
2022-08-30T15:59:29.191Z,41.52
2022-08-30T16:01:59.969Z,41.61
2022-08-30T16:04:27.611Z,41.49
2022-08-30T16:06:55.498Z,41.61
2022-08-30T16:09:23.325Z,41.66
2022-08-30T16:11:50.978Z,41.55
2022-08-30T16:14:21.255Z,41.95
2022-08-30T16:16:48.861Z,42.08
2022-08-30T16:19:16.497Z,41.99
2022-08-30T16:21:44.252Z,42.53
2022-08-30T16:24:14.071Z,42.67
2022-08-30T16:26:43.135Z,42.56
2022-08-30T16:29:12.510Z,43.16
2022-08-30T16:31:43.581Z,43.02
2022-08-30T16:34:14.833Z,43.16
2022-08-30T16:36:42.753Z,43.02
2022-08-30T16:39:11.167Z,43.35
2022-08-30T16:41:41.063Z,43.21
2022-08-30T16:44:08.813Z,43.30
2022-08-30T16:46:41.270Z,43.28
2022-08-30T16:49:10.507Z,43.53
2022-08-30T16:51:38.527Z,43.36
2022-08-30T16:54:07.803Z,43.64
2022-08-30T16:56:36.651Z,43.68
2022-08-30T16:59:10.919Z,43.83
2022-08-30T17:01:43.497Z,44.04
2022-08-30T17:04:15.910Z,44.01
2022-08-30T17:06:49.693Z,44.48
2022-08-30T17:09:18.617Z,44.58
2022-08-30T17:11:53.723Z,45.02
2022-08-30T17:17:11.599Z,44.76
2022-08-30T17:19:43.070Z,45.06
2022-08-30T17:22:12.867Z,45.43
2022-08-30T17:24:40.902Z,45.57
2022-08-30T17:27:08.780Z,45.47
2022-08-30T17:29:36.270Z,45.77
2022-08-30T17:32:06.301Z,45.78
2022-08-30T17:34:34.098Z,45.92
2022-08-30T17:37:01.999Z,46.02
2022-08-30T17:39:31.462Z,46.29
2022-08-30T17:41:59.116Z,46.55
2022-08-30T17:44:31.612Z,46.65
2022-08-30T17:47:03.324Z,46.85
2022-08-30T17:49:33.482Z,46.95
2022-08-30T17:52:01.730Z,47.24
2022-08-30T17:54:31.354Z,47.20
2022-08-30T17:57:00.466Z,47.13
2022-08-30T17:59:31.482Z,47.16
2022-08-30T18:01:59.729Z,46.95
2022-08-30T18:04:27.489Z,46.96
2022-08-30T18:06:55.830Z,46.85
2022-08-30T18:09:24.526Z,46.64
2022-08-30T18:11:52.572Z,46.63
2022-08-30T18:14:24.333Z,46.57
2022-08-30T18:16:54.549Z,46.67
2022-08-30T18:19:27.814Z,46.36
2022-08-30T18:21:58.864Z,46.16
2022-08-30T18:24:27.626Z,46.22
2022-08-30T18:27:03.533Z,46.50
2022-08-30T18:29:31.745Z,46.20
2022-08-30T18:32:01.063Z,46.47
2022-08-30T18:34:29.812Z,46.42
2022-08-30T18:36:57.526Z,46.69
2022-08-30T18:39:25.470Z,46.83
2022-08-30T18:41:54.676Z,46.78
2022-08-30T18:44:28.765Z,47.40
2022-08-30T18:47:00.474Z,47.19
2022-08-30T18:49:32.382Z,47.73
2022-08-30T18:52:01.934Z,47.42
2022-08-30T18:54:29.836Z,47.76
2022-08-30T18:56:57.506Z,48.16
2022-08-30T18:59:35.630Z,48.34
2022-08-30T19:02:17.505Z,48.50
2022-08-30T19:04:45.910Z,48.49
2022-08-30T19:07:15.623Z,48.86
2022-08-30T19:09:45.340Z,48.93
2022-08-30T19:12:13.995Z,49.26
2022-08-30T19:14:41.591Z,49.22
2022-08-30T19:17:09.309Z,49.69
2022-08-30T19:19:48.524Z,49.96
2022-08-30T19:22:24.005Z,50.44
2022-08-30T19:24:54.898Z,50.09
2022-08-30T19:27:37.145Z,50.17
2022-08-30T19:30:20.052Z,50.29
2022-08-30T19:32:51.612Z,50.40
2022-08-30T19:35:20.108Z,50.69
2022-08-30T19:37:47.732Z,50.72
2022-08-30T19:40:17.969Z,50.97
2022-08-30T19:45:34.404Z,51.30
2022-08-30T19:48:02.302Z,51.50
2022-08-30T19:50:32.323Z,51.64
2022-08-30T19:52:59.846Z,51.59
2022-08-30T19:55:31.267Z,51.93
2022-08-30T19:57:59.319Z,51.83
2022-08-30T20:00:27.297Z,52.12
2022-08-30T20:02:58.962Z,52.21
2022-08-30T20:05:27.160Z,52.38
2022-08-30T20:07:54.991Z,52.57
2022-08-30T20:10:28.968Z,52.95
2022-08-30T20:12:56.953Z,52.87
2022-08-30T20:15:25.781Z,52.97
2022-08-30T20:18:05.856Z,53.14
2022-08-30T20:20:41.985Z,53.11
2022-08-30T20:23:17.695Z,53.42
2022-08-30T20:24:23.857Z,45.07
2022-08-30T20:25:51.239Z,53.21
2022-08-30T20:28:20.003Z,53.42
2022-08-30T20:30:48.427Z,53.72
2022-08-30T20:33:17.355Z,54.00
2022-08-30T20:35:48.998Z,54.01
2022-08-30T20:38:22.566Z,54.17
2022-08-30T20:40:53.100Z,54.41
2022-08-30T20:43:25.758Z,54.58
2022-08-30T20:45:55.412Z,54.76
2022-08-30T20:48:27.230Z,54.83
2022-08-30T20:50:55.114Z,54.90
2022-08-30T20:53:22.715Z,54.93
2022-08-30T20:55:50.314Z,54.87
2022-08-30T20:58:18.067Z,54.79
2022-08-30T21:00:50.464Z,54.72
2022-08-30T21:03:26.237Z,54.38
2022-08-30T21:05:56.898Z,54.23
2022-08-30T21:08:25.204Z,54.10
2022-08-30T21:10:54.283Z,54.00
2022-08-30T21:13:22.550Z,54.24
2022-08-30T21:15:54.675Z,54.11
2022-08-30T21:18:29.662Z,54.12
2022-08-30T21:20:57.546Z,53.49
2022-08-30T21:23:25.458Z,53.63
2022-08-30T21:25:53.065Z,53.49
2022-08-30T21:28:21.691Z,53.32
2022-08-30T21:30:49.239Z,53.35
2022-08-30T21:33:16.886Z,53.15
2022-08-30T21:36:02.945Z,52.79
2022-08-30T21:38:30.531Z,52.74
2022-08-30T21:41:00.598Z,52.53
2022-08-30T21:43:28.087Z,52.56
2022-08-30T21:45:55.725Z,52.35
2022-08-30T21:48:26.137Z,52.26
2022-08-30T21:50:58.401Z,52.07
2022-08-30T21:53:26.363Z,52.09
2022-08-30T21:55:53.967Z,52.09
2022-08-30T21:58:22.871Z,52.21
2022-08-30T22:00:50.578Z,52.25
2022-08-30T22:03:18.245Z,52.36
2022-08-30T22:05:52.231Z,52.68
2022-08-30T22:08:19.738Z,52.67
2022-08-30T22:10:47.336Z,52.73
2022-08-30T22:13:15.289Z,52.72
2022-08-30T22:15:45.226Z,52.61
2022-08-30T22:18:14.949Z,53.15
2022-08-30T22:20:43.276Z,52.95
2022-08-30T22:23:12.121Z,53.09
2022-08-30T22:25:44.001Z,53.15
2022-08-30T22:28:13.778Z,53.37
2022-08-30T22:30:41.609Z,53.49
2022-08-30T22:33:09.546Z,53.65
2022-08-30T22:35:37.379Z,53.77
2022-08-30T22:38:05.470Z,53.79
2022-08-30T22:40:33.093Z,54.00
2022-08-30T22:43:01.083Z,54.10
2022-08-30T22:45:29.458Z,54.18
2022-08-30T22:47:57.044Z,54.34
2022-08-30T22:50:24.588Z,54.66
2022-08-30T22:52:52.367Z,54.66
2022-08-30T22:55:19.907Z,54.72
2022-08-30T22:57:47.456Z,54.82
2022-08-30T23:00:17.760Z,55.08
2022-08-30T23:02:53.109Z,55.44
2022-08-30T23:05:23.516Z,55.47
2022-08-30T23:07:52.318Z,55.28
2022-08-30T23:10:20.020Z,55.50
2022-08-30T23:12:47.568Z,55.64
2022-08-30T23:15:16.481Z,55.88
2022-08-30T23:17:44.030Z,55.90
2022-08-30T23:20:11.726Z,56.24
2022-08-30T23:22:39.564Z,56.26
2022-08-30T23:25:26.246Z,56.51
2022-08-30T23:28:15.037Z,56.69
2022-08-30T23:31:07.050Z,56.82
2022-08-30T23:33:55.905Z,57.49
2022-08-30T23:36:44.306Z,57.37
2022-08-30T23:39:30.429Z,57.54
2022-08-30T23:42:18.976Z,57.82
2022-08-30T23:45:07.133Z,58.49
2022-08-30T23:47:53.188Z,58.36
2022-08-30T23:50:39.242Z,58.52
2022-08-30T23:53:25.716Z,58.68
2022-08-30T23:56:11.847Z,58.74
2022-08-30T23:58:58.031Z,59.01
